Time;durP1;ratioP1;P1;durP2;ratioP2;P2;SDS_P1;SDS_P2;PMS_P1;PMS_P2;Temp;Humidity;BMP_temperature;BMP_pressure;BME280_temperature;BME280_humidity;BME280_pressure;Samples;Min_cycle;Max_cycle;Signal;HPM_P1;HPM_P2
2022/06/18 00:01:37;;;;;;;6.25;4.20;;;;;;;14.69;87.67;96230.03;5004891;28;20074;-80
2022/06/18 00:04:11;;;;;;;7.13;4.07;;;;;;;14.69;88.09;96236.09;4989063;28;20408;-80
2022/06/18 00:06:50;;;;;;;9.20;4.10;;;;;;;14.64;88.63;96216.81;4999431;28;20041;-81
2022/06/18 00:09:16;;;;;;;7.63;4.07;;;;;;;14.61;88.48;96217.34;5000477;28;20037;-82
2022/06/18 00:14:26;;;;;;;6.18;3.90;;;;;;;14.52;87.99;96198.59;4991952;28;20061;-80
2022/06/18 00:16:52;;;;;;;9.18;4.10;;;;;;;14.52;87.96;96203.91;5002734;28;20117;-79
2022/06/18 00:19:17;;;;;;;5.20;3.70;;;;;;;14.48;87.58;96202.88;5003251;28;20038;-82
2022/06/18 00:21:43;;;;;;;6.38;3.92;;;;;;;14.50;86.48;96200.75;5003798;28;20114;-81
2022/06/18 00:24:19;;;;;;;6.03;3.90;;;;;;;14.52;86.97;96199.41;5002065;28;20038;-81
2022/06/18 00:26:45;;;;;;;5.00;3.70;;;;;;;14.56;86.97;96204.94;5004139;28;20100;-78
2022/06/18 00:29:14;;;;;;;5.07;3.55;;;;;;;14.47;87.02;96201.31;5004486;28;20034;-80
2022/06/18 00:31:40;;;;;;;6.07;3.70;;;;;;;14.44;87.25;96201.84;5006775;28;20038;-81
2022/06/18 00:34:06;;;;;;;6.07;3.65;;;;;;;14.33;87.44;96203.78;5004476;28;20122;-81
2022/06/18 00:36:32;;;;;;;6.90;4.10;;;;;;;14.30;87.30;96202.47;5000731;28;20605;-79
2022/06/18 00:38:57;;;;;;;10.80;3.92;;;;;;;14.26;87.04;96212.03;5006716;28;20046;-78
2022/06/18 00:41:25;;;;;;;8.20;4.18;;;;;;;14.26;88.66;96206.72;5004398;28;20523;-80
2022/06/18 00:43:58;;;;;;;8.05;3.50;;;;;;;14.29;88.19;96200.88;5005370;28;20038;-78
2022/06/18 00:46:40;;;;;;;5.03;4.00;;;;;;;14.23;87.89;96202.00;5004157;28;20105;-80
2022/06/18 00:49:23;;;;;;;6.13;3.95;;;;;;;14.17;89.35;96208.41;5001669;28;20042;-79
2022/06/18 00:52:02;;;;;;;12.30;4.20;;;;;;;14.04;89.98;96200.00;5016827;28;20509;-80
2022/06/18 00:54:33;;;;;;;5.20;3.90;;;;;;;14.28;90.04;96199.31;5002420;28;20045;-79
2022/06/18 00:57:11;;;;;;;5.38;3.70;;;;;;;14.11;90.29;96206.84;5011991;28;20039;-80
2022/06/18 00:59:59;;;;;;;7.25;3.97;;;;;;;13.96;90.79;96203.22;5001260;28;20051;-80
2022/06/18 01:02:32;;;;;;;7.20;3.70;;;;;;;13.95;91.54;96201.66;5001368;28;20046;-81
2022/06/18 01:04:58;;;;;;;6.35;4.28;;;;;;;13.86;91.85;96197.97;4998824;28;20045;-79
2022/06/18 01:07:30;;;;;;;8.30;4.10;;;;;;;13.94;92.71;96205.34;4992065;28;20039;-80
2022/06/18 01:09:57;;;;;;;5.57;3.78;;;;;;;13.91;92.21;96200.59;4994742;28;20089;-80
2022/06/18 01:12:23;;;;;;;5.03;3.60;;;;;;;13.84;92.16;96194.81;4993619;28;20511;-80
2022/06/18 01:14:55;;;;;;;5.25;3.90;;;;;;;13.69;94.30;96203.63;4998563;28;20039;-82
2022/06/18 01:17:20;;;;;;;7.90;4.00;;;;;;;13.64;94.23;96201.00;4998612;28;20050;-79
2022/06/18 01:19:50;;;;;;;7.75;3.97;;;;;;;13.62;94.09;96203.94;5002592;28;20045;-80
2022/06/18 01:22:33;;;;;;;11.02;5.18;;;;;;;13.65;94.56;96203.38;5016601;28;20117;-80
2022/06/18 01:24:59;;;;;;;7.05;4.03;;;;;;;13.72;94.13;96197.81;5001731;28;20046;-81
2022/06/18 01:27:25;;;;;;;5.50;3.92;;;;;;;13.60;93.89;96206.03;4999929;28;20157;-81
2022/06/18 01:29:50;;;;;;;6.60;4.18;;;;;;;13.50;94.63;96206.09;5000710;28;20429;-79
2022/06/18 01:32:17;;;;;;;5.25;4.20;;;;;;;13.46;94.49;96189.16;5000310;28;20169;-79
2022/06/18 01:34:45;;;;;;;7.60;3.97;;;;;;;13.52;95.22;96201.34;5003405;28;20038;-79
2022/06/18 01:37:11;;;;;;;7.68;4.00;;;;;;;13.48;94.71;96198.44;5001820;28;20066;-80
2022/06/18 01:39:41;;;;;;;6.85;4.10;;;;;;;13.34;96.37;96202.69;4991074;28;20046;-80
2022/06/18 01:42:13;;;;;;;5.82;4.05;;;;;;;13.26;96.88;96198.75;5000976;28;20571;-78
2022/06/18 01:44:52;;;;;;;6.47;4.13;;;;;;;13.16;97.67;96198.78;5000917;28;20050;-80
2022/06/18 01:47:24;;;;;;;7.05;4.20;;;;;;;13.14;98.33;96198.25;5001169;28;20046;-81
2022/06/18 01:49:59;;;;;;;6.85;4.18;;;;;;;13.13;98.49;96191.38;4996607;28;20102;-79
2022/06/18 01:52:30;;;;;;;6.13;4.10;;;;;;;12.99;98.30;96191.94;4996186;28;20051;-81
2022/06/18 01:55:00;;;;;;;7.50;3.80;;;;;;;13.22;97.25;96189.78;4995813;28;20042;-80
2022/06/18 01:57:36;;;;;;;6.82;3.88;;;;;;;13.19;97.61;96190.31;4992818;28;20058;-82
2022/06/18 02:00:12;;;;;;;8.18;4.45;;;;;;;13.09;96.73;96185.06;4999007;28;20041;-79
2022/06/18 02:02:39;;;;;;;8.23;4.28;;;;;;;12.98;97.33;96179.00;4997201;28;20123;-80
2022/06/18 02:05:06;;;;;;;6.80;3.95;;;;;;;12.89;99.00;96176.09;4999863;28;20046;-79
2022/06/18 02:07:33;;;;;;;6.78;4.57;;;;;;;12.98;99.79;96169.22;5002197;28;20054;-80
2022/06/18 02:10:03;;;;;;;7.18;4.10;;;;;;;12.97;99.44;96172.13;4999946;28;20054;-79
2022/06/18 02:12:34;;;;;;;8.43;4.50;;;;;;;12.96;98.72;96171.34;5001118;28;20042;-81
2022/06/18 02:15:04;;;;;;;7.38;4.60;;;;;;;12.88;99.25;96169.22;5000886;28;20096;-80
2022/06/18 02:17:30;;;;;;;6.63;4.18;;;;;;;12.82;99.29;96165.03;5000200;28;20116;-81
2022/06/18 02:20:03;;;;;;;6.35;3.97;;;;;;;12.83;100.00;96166.63;5001523;28;20712;-79
2022/06/18 02:22:34;;;;;;;6.90;4.32;;;;;;;12.65;100.00;96166.09;5001290;28;20500;-80
2022/06/18 02:25:00;;;;;;;8.23;4.30;;;;;;;12.65;100.00;96160.81;5001054;28;20038;-81
2022/06/18 02:27:25;;;;;;;5.55;4.00;;;;;;;12.62;100.00;96164.00;4999379;28;20447;-77
2022/06/18 02:29:53;;;;;;;7.57;4.47;;;;;;;12.86;99.52;96158.16;4998785;28;20046;-79
2022/06/18 02:32:29;;;;;;;5.68;4.05;;;;;;;12.86;99.30;96154.72;5001759;28;20037;-79
2022/06/18 02:34:54;;;;;;;6.30;4.10;;;;;;;12.77;99.48;96162.38;5003187;28;20048;-79
2022/06/18 02:37:23;;;;;;;7.45;4.07;;;;;;;12.70;100.00;96167.16;5004201;28;20054;-79
2022/06/18 02:39:52;;;;;;;9.23;4.28;;;;;;;12.62;100.00;96168.50;5000885;28;20034;-79
2022/06/18 02:42:19;;;;;;;8.30;4.72;;;;;;;12.63;100.00;96167.44;5001944;28;20562;-79
2022/06/18 02:44:47;;;;;;;6.10;4.40;;;;;;;12.41;100.00;96165.06;5003459;28;20570;-78
2022/06/18 02:47:13;;;;;;;6.22;4.30;;;;;;;12.25;100.00;96166.91;5004186;28;20058;-80
2022/06/18 02:49:44;;;;;;;8.02;4.22;;;;;;;12.28;100.00;96172.47;5003365;28;20034;-79
2022/06/18 02:52:10;;;;;;;9.32;4.40;;;;;;;12.30;100.00;96165.06;5003712;28;20069;-80
2022/06/18 02:54:36;;;;;;;7.70;5.22;;;;;;;12.38;100.00;96173.50;5000297;28;20094;-80
2022/06/18 02:57:08;;;;;;;11.10;4.28;;;;;;;12.43;100.00;96170.88;4998698;28;20132;-78
2022/06/18 02:59:33;;;;;;;6.68;4.35;;;;;;;12.50;100.00;96168.78;4999137;28;20038;-79
2022/06/18 03:01:59;;;;;;;6.88;4.50;;;;;;;12.48;100.00;96162.94;5007210;28;20065;-79
2022/06/18 03:04:24;;;;;;;7.47;4.53;;;;;;;12.46;100.00;96162.44;4993742;28;20401;-79
2022/06/18 03:06:50;;;;;;;6.28;4.65;;;;;;;12.36;100.00;96168.50;4998010;28;20038;-78
2022/06/18 03:09:15;;;;;;;7.05;4.80;;;;;;;12.34;100.00;96164.53;4999690;28;20073;-78
2022/06/18 03:14:25;;;;;;;9.40;4.57;;;;;;;12.36;100.00;96167.72;4994160;28;20038;-80
2022/06/18 03:16:50;;;;;;;9.68;4.90;;;;;;;12.36;100.00;96154.53;4997763;28;20042;-78
2022/06/18 03:19:35;;;;;;;7.32;4.93;;;;;;;12.24;100.00;96163.50;4999785;28;20046;-78
2022/06/18 03:22:14;;;;;;;9.23;5.18;;;;;;;12.20;100.00;96165.06;4990532;28;20045;-77
2022/06/18 03:24:41;;;;;;;8.40;4.68;;;;;;;12.18;100.00;96156.59;4992431;28;20109;-77
2022/06/18 03:27:08;;;;;;;6.22;4.68;;;;;;;12.32;100.00;96169.31;4991719;28;20042;-78
2022/06/18 03:29:33;;;;;;;6.13;4.60;;;;;;;12.23;100.00;96159.25;4991916;28;20065;-79
2022/06/18 03:32:01;;;;;;;6.57;4.72;;;;;;;12.29;100.00;96163.47;4988852;28;20042;-80
2022/06/18 03:34:26;;;;;;;8.18;4.90;;;;;;;12.35;100.00;96158.22;4989768;28;20151;-79
2022/06/18 03:36:52;;;;;;;8.77;5.07;;;;;;;12.24;100.00;96163.50;4991720;28;20431;-78
2022/06/18 03:39:17;;;;;;;10.82;4.70;;;;;;;12.21;100.00;96166.66;4987053;28;20050;-80
2022/06/18 03:41:43;;;;;;;7.22;5.25;;;;;;;12.32;100.00;96161.38;4990270;28;20042;-79
2022/06/18 03:44:08;;;;;;;7.15;4.95;;;;;;;12.27;100.00;96170.88;4991570;28;20034;-79
2022/06/18 03:46:38;;;;;;;7.40;4.97;;;;;;;12.17;100.00;96165.59;4991875;28;20085;-79
2022/06/18 03:49:05;;;;;;;6.28;4.72;;;;;;;12.16;100.00;96157.94;4989990;28;20046;-79
2022/06/18 03:51:33;;;;;;;10.05;5.13;;;;;;;12.17;100.00;96155.03;4988455;28;20121;-79
2022/06/18 03:53:59;;;;;;;8.20;5.10;;;;;;;12.21;100.00;96160.56;4990963;28;20042;-78
2022/06/18 03:56:28;;;;;;;8.32;5.10;;;;;;;12.30;100.00;96159.00;4985822;28;20097;-78
2022/06/18 03:58:54;;;;;;;9.02;4.93;;;;;;;12.27;100.00;96165.59;4992652;28;20046;-78
2022/06/18 04:01:23;;;;;;;7.43;5.03;;;;;;;12.29;100.00;96160.84;4992723;28;20094;-79
2022/06/18 04:03:48;;;;;;;8.32;5.10;;;;;;;12.24;100.00;96155.56;4993410;28;20062;-79
2022/06/18 04:06:17;;;;;;;8.40;5.60;;;;;;;12.25;100.00;96151.84;4990361;28;20035;-79
2022/06/18 04:08:43;;;;;;;7.57;5.10;;;;;;;12.33;100.00;96157.69;4990019;28;20054;-78
2022/06/18 04:11:10;;;;;;;9.02;5.10;;;;;;;12.36;100.00;96157.16;4992780;28;20038;-78
2022/06/18 04:13:36;;;;;;;6.90;4.93;;;;;;;12.39;100.00;96149.50;4991192;28;20047;-78
2022/06/18 04:16:02;;;;;;;11.13;5.10;;;;;;;12.46;100.00;96151.88;4993221;28;20085;-78
2022/06/18 04:18:28;;;;;;;8.10;5.15;;;;;;;12.48;100.00;96149.75;4993412;28;20077;-78
2022/06/18 04:20:54;;;;;;;8.73;5.18;;;;;;;12.51;100.00;96137.88;4993406;28;20116;-77
2022/06/18 04:23:20;;;;;;;7.22;4.95;;;;;;;12.61;100.00;96138.66;4995035;28;20060;-78
2022/06/18 04:25:46;;;;;;;8.32;5.40;;;;;;;12.67;100.00;96141.28;4992825;28;20046;-78
2022/06/18 04:28:15;;;;;;;7.78;5.45;;;;;;;12.72;100.00;96143.94;4993855;28;20709;-78
2022/06/18 04:30:40;;;;;;;9.18;5.65;;;;;;;12.77;100.00;96138.63;4992796;28;20034;-78
2022/06/18 04:33:06;;;;;;;7.75;5.15;;;;;;;12.88;100.00;96132.25;4992812;28;20046;-78
2022/06/18 04:35:32;;;;;;;7.43;5.28;;;;;;;12.97;100.00;96128.00;4991717;28;20050;-77
2022/06/18 04:37:57;;;;;;;9.00;5.00;;;;;;;13.21;100.00;96135.31;4993227;28;20050;-77
2022/06/18 04:40:31;;;;;;;11.80;5.10;;;;;;;13.38;100.00;96128.94;4993656;28;20093;-78
2022/06/18 04:43:03;;;;;;;8.02;4.93;;;;;;;13.52;100.00;96136.00;4992468;28;20038;-78
2022/06/18 04:45:29;;;;;;;8.02;5.35;;;;;;;13.52;100.00;96132.59;4993694;28;20039;-79
2022/06/18 04:47:56;;;;;;;8.15;5.65;;;;;;;13.56;100.00;96136.28;4992867;28;20070;-78
2022/06/18 04:50:25;;;;;;;9.35;5.38;;;;;;;13.68;100.00;96139.34;4992534;28;20046;-78
2022/06/18 04:52:51;;;;;;;6.95;5.00;;;;;;;13.77;100.00;96141.44;4993047;28;20046;-78
2022/06/18 04:55:17;;;;;;;8.35;5.43;;;;;;;13.84;100.00;96136.63;4993405;28;20053;-78
2022/06/18 04:57:42;;;;;;;10.00;5.22;;;;;;;13.92;100.00;96143.19;4993869;28;20096;-77
2022/06/18 05:00:09;;;;;;;8.55;6.03;;;;;;;14.00;100.00;96143.38;4996264;28;20061;-78
2022/06/18 05:02:35;;;;;;;7.78;5.65;;;;;;;14.11;100.00;96138.03;4994040;28;20471;-78
2022/06/18 05:05:05;;;;;;;7.82;5.28;;;;;;;14.18;100.00;96135.88;4992309;28;20042;-79
2022/06/18 05:07:31;;;;;;;8.25;5.60;;;;;;;14.29;100.00;96137.34;4993067;28;20042;-78
2022/06/18 05:09:57;;;;;;;8.73;5.57;;;;;;;14.33;100.00;96135.72;4992515;28;20046;-79
2022/06/18 05:12:22;;;;;;;7.22;5.53;;;;;;;14.42;100.00;96137.78;4992763;28;20042;-78
2022/06/18 05:14:48;;;;;;;8.02;5.38;;;;;;;14.66;98.95;96140.53;5008596;28;20042;-79
2022/06/18 05:17:26;;;;;;;8.57;5.60;;;;;;;15.15;93.75;96130.72;4987256;28;20088;-78
2022/06/18 05:19:52;;;;;;;7.70;5.30;;;;;;;15.47;92.61;96137.22;4992591;28;20642;-79
2022/06/18 05:22:17;;;;;;;7.20;5.03;;;;;;;15.69;87.71;96140.13;4997143;28;20042;-80
2022/06/18 05:24:43;;;;;;;8.80;5.10;;;;;;;15.76;92.35;96132.59;4993934;28;20046;-79
2022/06/18 05:27:34;;;;;;;8.75;5.00;;;;;;;16.00;85.44;96129.09;4992331;28;20046;-78
2022/06/18 05:30:00;;;;;;;7.45;4.88;;;;;;;16.42;83.83;96140.66;4990739;28;20054;-78
2022/06/18 05:32:26;;;;;;;5.85;4.45;;;;;;;16.65;81.00;96138.16;4991204;28;20043;-80
2022/06/18 05:34:51;;;;;;;10.68;4.55;;;;;;;16.91;79.47;96129.75;4992753;28;20046;-79
2022/06/18 05:37:23;;;;;;;9.43;4.78;;;;;;;17.04;79.03;96134.28;4990363;28;20046;-78
2022/06/18 05:39:48;;;;;;;7.03;5.38;;;;;;;17.11;81.79;96134.69;4991721;28;20496;-78
2022/06/18 05:42:14;;;;;;;6.35;4.60;;;;;;;17.20;80.11;96136.66;4991840;28;20041;-78
2022/06/18 05:44:39;;;;;;;10.32;4.65;;;;;;;17.35;77.89;96133.69;4991573;28;20041;-78
2022/06/18 05:47:13;;;;;;;8.90;4.97;;;;;;;17.45;78.59;96138.78;4993294;28;20038;-78
2022/06/18 05:49:38;;;;;;;9.20;4.87;;;;;;;17.39;78.75;96124.03;4989252;28;20559;-78
2022/06/18 05:52:04;;;;;;;7.22;4.63;;;;;;;17.67;78.26;96139.97;4994602;28;20034;-77
2022/06/18 05:54:29;;;;;;;6.65;4.60;;;;;;;17.72;78.06;96137.16;4992022;28;20046;-78
2022/06/18 05:56:55;;;;;;;7.55;4.47;;;;;;;17.88;77.69;96134.19;4992147;28;20260;-78
2022/06/18 05:59:20;;;;;;;9.65;4.82;;;;;;;17.99;76.67;96131.00;4989667;28;20452;-78
2022/06/18 06:01:46;;;;;;;8.07;4.70;;;;;;;18.32;76.31;96132.66;4989752;28;20065;-79
2022/06/18 06:04:11;;;;;;;7.22;4.45;;;;;;;18.42;74.96;96136.94;4989212;28;20703;-80
2022/06/18 06:06:37;;;;;;;6.20;4.43;;;;;;;18.42;73.48;96137.72;4991266;28;20050;-78
2022/06/18 06:09:03;;;;;;;6.18;4.55;;;;;;;18.55;73.01;96132.63;4989190;28;20130;-78
2022/06/18 06:11:32;;;;;;;6.80;4.25;;;;;;;18.91;70.70;96132.53;4998431;28;20046;-77
2022/06/18 06:14:00;;;;;;;5.50;4.15;;;;;;;19.16;68.01;96120.34;5016909;28;20053;-78
2022/06/18 06:16:27;;;;;;;5.28;4.32;;;;;;;19.14;69.39;96135.91;5016490;28;20043;-81
2022/06/18 06:18:53;;;;;;;9.18;4.50;;;;;;;19.10;72.89;96137.63;5016034;28;20025;-78
2022/06/18 06:21:18;;;;;;;10.38;4.47;;;;;;;19.26;69.33;96131.88;5015393;28;20069;-78
2022/06/18 06:23:44;;;;;;;7.07;4.40;;;;;;;19.41;69.91;96127.97;5014924;28;20030;-78
2022/06/18 06:26:21;;;;;;;5.40;4.00;;;;;;;19.47;69.55;96127.50;5031201;28;20045;-77
2022/06/18 06:28:47;;;;;;;7.28;4.38;;;;;;;19.61;68.82;96131.91;5014661;28;20061;-78
2022/06/18 06:31:13;;;;;;;8.65;4.47;;;;;;;19.76;68.18;96133.38;5031837;28;20054;-77
2022/06/18 06:33:39;;;;;;;7.68;4.40;;;;;;;19.76;68.98;96130.69;5015545;28;20033;-78
2022/06/18 06:36:05;;;;;;;7.28;4.20;;;;;;;19.90;68.01;96124.13;5014504;28;20030;-78
2022/06/18 06:38:32;;;;;;;6.40;4.28;;;;;;;20.01;64.12;96118.47;5004937;28;20034;-79
2022/06/18 06:40:58;;;;;;;10.40;4.38;;;;;;;20.11;65.64;96128.84;5009850;28;20038;-77
2022/06/18 06:43:25;;;;;;;7.85;4.10;;;;;;;20.31;65.69;96131.97;5011779;28;20047;-78
2022/06/18 06:45:50;;;;;;;6.80;3.78;;;;;;;20.44;63.84;96131.00;4993055;28;20065;-79
2022/06/18 06:48:16;;;;;;;6.00;3.92;;;;;;;20.63;62.27;96121.81;4983913;28;20507;-78
2022/06/18 06:50:42;;;;;;;7.30;3.80;;;;;;;20.71;63.63;96123.72;4988270;28;20046;-80
2022/06/18 06:53:07;;;;;;;7.07;3.97;;;;;;;20.63;65.02;96129.84;4987338;28;20544;-83
2022/06/18 06:58:20;;;;;;;7.22;3.95;;;;;;;20.88;61.11;96118.31;4981570;28;20525;-78
2022/06/18 07:00:48;;;;;;;7.20;3.95;;;;;;;20.90;60.35;96124.16;4988727;28;20085;-79
2022/06/18 07:03:16;;;;;;;9.20;3.72;;;;;;;21.05;58.56;96122.81;4989410;28;20044;-78
2022/06/18 07:05:42;;;;;;;7.82;3.90;;;;;;;21.17;58.31;96114.09;4987729;28;20057;-79
2022/06/18 07:08:08;;;;;;;5.45;3.65;;;;;;;21.29;56.94;96122.22;4987957;28;20034;-79
2022/06/18 07:10:35;;;;;;;6.10;3.90;;;;;;;21.44;56.17;96122.78;4989852;28;20077;-77
2022/06/18 07:13:01;;;;;;;4.65;3.40;;;;;;;21.37;56.39;96111.78;4989452;28;20061;-79
2022/06/18 07:15:26;;;;;;;4.85;3.55;;;;;;;21.56;55.16;96114.06;4985898;28;20492;-80
2022/06/18 07:17:51;;;;;;;6.15;3.40;;;;;;;21.55;55.78;96107.94;4988922;28;20073;-81
2022/06/18 07:20:19;;;;;;;5.53;3.63;;;;;;;21.72;55.45;96107.03;4991227;28;20503;-79
2022/06/18 07:22:45;;;;;;;4.95;3.50;;;;;;;21.69;55.86;96093.50;5002841;28;20039;-81
2022/06/18 07:25:13;;;;;;;4.97;3.30;;;;;;;21.83;54.19;96102.06;4988620;28;20093;-84
2022/06/18 07:27:39;;;;;;;6.90;3.47;;;;;;;21.92;54.56;96100.09;4988543;28;20045;-83
2022/06/18 07:30:08;;;;;;;7.35;3.10;;;;;;;21.75;55.80;96089.50;4988276;28;20108;-81
2022/06/18 07:32:35;;;;;;;5.18;3.50;;;;;;;22.09;52.29;96093.00;4987917;28;20497;-82
2022/06/18 07:35:01;;;;;;;5.45;3.30;;;;;;;22.12;54.38;96085.09;4986759;28;20046;-82
2022/06/18 07:37:29;;;;;;;5.30;3.22;;;;;;;22.29;53.19;96086.03;4985401;28;20058;-83
2022/06/18 07:39:54;;;;;;;4.22;3.00;;;;;;;22.37;52.88;96087.09;4979995;28;20126;-79
2022/06/18 07:42:21;;;;;;;4.43;3.20;;;;;;;22.31;53.11;96079.25;4989337;28;20103;-82
2022/06/18 07:44:47;;;;;;;6.18;3.10;;;;;;;22.58;52.88;96087.81;4985214;28;20053;-80
2022/06/18 07:47:15;;;;;;;5.90;3.28;;;;;;;22.59;52.97;96081.31;4985795;28;20504;-79
2022/06/18 07:49:42;;;;;;;7.43;3.53;;;;;;;22.45;54.71;96067.44;4988478;28;20042;-79
2022/06/18 07:52:07;;;;;;;6.30;2.97;;;;;;;22.52;55.57;96067.69;4986774;28;20493;-79
2022/06/18 07:54:33;;;;;;;5.47;3.42;;;;;;;22.88;54.77;96068.84;4987494;28;20039;-78
2022/06/18 07:56:58;;;;;;;8.50;3.13;;;;;;;22.90;51.85;96061.25;4990005;28;20423;-79
2022/06/18 07:59:24;;;;;;;3.75;3.20;;;;;;;23.06;53.22;96063.25;4988095;28;20046;-79
2022/06/18 08:01:50;;;;;;;3.88;2.88;;;;;;;23.07;52.03;96059.44;4991468;28;20049;-81
2022/06/18 08:04:16;;;;;;;4.38;3.15;;;;;;;23.13;54.11;96058.13;4989944;28;20042;-82
2022/06/18 08:06:41;;;;;;;5.82;3.00;;;;;;;23.31;55.10;96059.44;4988777;28;20562;-79
2022/06/18 08:09:08;;;;;;;4.13;3.13;;;;;;;23.37;52.61;96051.16;4988296;28;20046;-78
2022/06/18 08:11:35;;;;;;;3.72;3.08;;;;;;;23.41;53.60;96052.06;4989596;28;20046;-79
2022/06/18 08:14:01;;;;;;;3.92;2.90;;;;;;;23.45;51.29;96045.66;4989323;28;20736;-79
2022/06/18 08:16:26;;;;;;;5.28;3.00;;;;;;;23.45;51.92;96058.31;4991187;28;20038;-80
2022/06/18 08:18:52;;;;;;;4.53;2.90;;;;;;;23.61;50.56;96043.03;4995296;28;20111;-80
2022/06/18 08:21:33;;;;;;;3.80;2.70;;;;;;;23.35;54.24;96049.59;4988853;28;20521;-79
2022/06/18 08:24:06;;;;;;;4.50;3.17;;;;;;;23.47;50.69;96045.31;4981788;28;20711;-81
2022/06/18 08:26:33;;;;;;;3.80;2.80;;;;;;;23.56;51.84;96043.28;4988695;28;20419;-80
2022/06/18 08:29:01;;;;;;;3.33;2.78;;;;;;;23.59;51.30;96047.97;4989116;28;20543;-79
2022/06/18 08:31:27;;;;;;;3.55;2.70;;;;;;;23.97;44.60;96038.69;4988688;28;20046;-81
2022/06/18 08:33:53;;;;;;;5.53;3.25;;;;;;;23.92;45.62;96036.25;4989109;28;20113;-80
2022/06/18 08:36:19;;;;;;;4.57;2.80;;;;;;;24.15;45.95;96046.44;4988597;28;20662;-80
2022/06/18 08:38:47;;;;;;;7.05;4.03;;;;;;;24.28;43.93;96039.88;4988785;28;20045;-80
2022/06/18 08:41:44;;;;;;;11.70;5.88;;;;;;;24.45;43.95;96046.03;4989702;28;20488;-80
2022/06/18 08:44:22;;;;;;;3.40;2.50;;;;;;;24.57;40.37;96045.97;4991487;28;20054;-81
2022/06/18 08:47:14;;;;;;;5.03;2.47;;;;;;;24.67;40.30;96033.94;4981803;28;20504;-80
2022/06/18 08:50:07;;;;;;;3.40;2.50;;;;;;;24.39;44.64;96035.56;4993141;28;20051;-80
2022/06/18 08:52:59;;;;;;;2.63;2.10;;;;;;;24.26;42.76;96031.34;4983190;28;20118;-80
2022/06/18 08:55:38;;;;;;;6.38;2.55;;;;;;;24.86;38.02;96035.91;4984429;28;20042;-80
2022/06/18 08:58:14;;;;;;;4.22;2.55;;;;;;;24.77;39.48;96024.53;4993265;28;20053;-80
2022/06/18 09:00:51;;;;;;;2.95;2.40;;;;;;;24.87;39.46;96030.19;5002624;28;20049;-80
2022/06/18 09:03:22;;;;;;;5.35;2.55;;;;;;;24.83;38.95;96036.63;4993361;28;20046;-81
2022/06/18 09:06:12;;;;;;;3.53;2.10;;;;;;;24.93;37.31;96030.69;4993549;28;20097;-81
2022/06/18 09:08:51;;;;;;;2.67;2.13;;;;;;;24.81;37.69;96028.09;4992818;28;20522;-81
2022/06/18 09:11:26;;;;;;;2.65;2.10;;;;;;;25.14;37.10;96029.59;4992401;28;20050;-81
2022/06/18 09:14:02;;;;;;;3.40;2.20;;;;;;;25.13;40.19;96018.06;4989520;28;20558;-80
2022/06/18 09:16:35;;;;;;;2.33;2.00;;;;;;;25.37;37.42;96017.06;4991717;28;20050;-80
2022/06/18 09:19:03;;;;;;;3.17;2.25;;;;;;;25.14;37.89;96019.63;4992864;28;20432;-80
2022/06/18 09:21:41;;;;;;;2.70;2.15;;;;;;;25.46;37.32;96014.19;4992343;28;20560;-80
2022/06/18 09:24:09;;;;;;;2.72;2.20;;;;;;;25.53;38.00;96024.28;4993109;28;20043;-81
2022/06/18 09:26:39;;;;;;;3.03;2.20;;;;;;;25.60;38.89;96016.34;4992991;28;20051;-81
2022/06/18 09:29:21;;;;;;;3.17;2.42;;;;;;;25.75;38.47;96010.13;4991829;28;20058;-80
2022/06/18 09:31:53;;;;;;;4.88;2.20;;;;;;;25.90;36.58;96010.38;4991505;28;20053;-80
2022/06/18 09:34:24;;;;;;;3.92;2.15;;;;;;;25.95;34.29;96012.81;4991596;28;20039;-80
2022/06/18 09:36:56;;;;;;;3.85;2.28;;;;;;;25.97;34.41;96015.91;4992351;28;20057;-81
2022/06/18 09:39:36;;;;;;;5.30;2.55;;;;;;;26.00;34.40;96015.22;4992209;28;20046;-80
2022/06/18 09:42:18;;;;;;;2.80;2.20;;;;;;;26.19;34.26;96016.34;4990342;28;20567;-80
2022/06/18 09:44:50;;;;;;;3.47;2.20;;;;;;;26.31;36.14;96008.06;4992903;28;20081;-80
2022/06/18 09:47:22;;;;;;;5.25;2.30;;;;;;;26.53;35.80;96019.22;4992618;28;20043;-81
2022/06/18 09:49:48;;;;;;;3.88;2.42;;;;;;;26.37;34.42;96012.03;4987295;28;20432;-80
2022/06/18 09:52:31;;;;;;;2.90;2.30;;;;;;;26.35;36.40;96008.91;4983349;28;20038;-81
2022/06/18 09:55:04;;;;;;;3.65;2.40;;;;;;;26.26;36.14;96000.28;4990289;28;20145;-80
2022/06/18 09:57:33;;;;;;;3.50;2.60;;;;;;;26.42;36.15;96003.66;4992346;28;20050;-81
2022/06/18 10:00:15;;;;;;;3.72;2.35;;;;;;;26.45;36.88;96002.16;4994590;28;20605;-81
2022/06/18 10:06:52;;;;;;;3.78;2.70;;;;;;;26.47;36.43;96004.47;4999575;28;20042;-81
2022/06/18 10:08:48;;;;;;;4.57;2.60;;;;;;;26.63;35.89;95997.03;4991187;28;20062;-81
2022/06/18 10:11:15;;;;;;;6.43;2.80;;;;;;;26.70;36.51;96001.78;4991953;28;20054;-81
2022/06/18 10:14:03;;;;;;;3.80;2.60;;;;;;;27.03;35.21;95993.00;4991546;28;20507;-81
2022/06/18 10:16:44;;;;;;;4.22;2.60;;;;;;;27.05;35.71;95992.66;4991791;28;20046;-80
2022/06/18 10:19:32;;;;;;;3.55;2.50;;;;;;;27.53;35.06;95986.72;4992231;28;20488;-81
2022/06/18 10:22:01;;;;;;;5.07;2.60;;;;;;;27.84;35.32;95990.94;4987028;28;20444;-80
2022/06/18 10:24:38;;;;;;;5.93;2.50;;;;;;;27.91;33.45;95979.41;4991376;28;20050;-81
2022/06/18 10:27:18;;;;;;;3.53;2.53;;;;;;;28.06;31.87;95975.75;4990788;28;20042;-81
2022/06/18 10:30:05;;;;;;;5.25;2.67;;;;;;;28.27;32.83;95979.78;4991317;28;20046;-81
2022/06/18 10:32:51;;;;;;;4.68;2.80;;;;;;;28.43;32.95;95977.63;4991420;28;20049;-81
2022/06/18 10:35:38;;;;;;;3.85;2.60;;;;;;;28.66;30.71;95972.03;4990073;28;20053;-81
2022/06/18 10:38:35;;;;;;;3.90;2.78;;;;;;;29.03;32.55;95970.31;4991072;28;20042;-81
2022/06/18 10:41:32;;;;;;;3.53;2.72;;;;;;;29.18;30.65;95966.53;4990508;28;20034;-81
2022/06/18 10:44:11;;;;;;;5.18;2.75;;;;;;;29.61;31.03;95965.16;4968391;28;20061;-81
2022/06/18 10:46:37;;;;;;;9.63;2.97;;;;;;;29.75;30.55;95959.78;4991176;28;20167;-81
2022/06/18 10:49:06;;;;;;;4.43;2.55;;;;;;;29.77;30.81;95962.91;4990943;28;20480;-81
2022/06/18 10:51:47;;;;;;;3.65;2.65;;;;;;;30.50;30.68;95953.72;4989152;28;20053;-81
2022/06/18 10:54:13;;;;;;;4.90;2.65;;;;;;;31.18;29.84;95958.28;4990844;28;20042;-81
2022/06/18 10:56:54;;;;;;;4.35;2.60;;;;;;;31.09;30.12;95947.81;4990753;28;20042;-81
2022/06/18 10:59:39;;;;;;;5.18;2.65;;;;;;;31.87;28.37;95947.88;4989693;28;20049;-81
2022/06/18 11:02:16;;;;;;;4.63;3.00;;;;;;;32.13;29.32;95943.84;4990534;28;20034;-81
2022/06/18 11:04:52;;;;;;;4.57;2.75;;;;;;;32.32;27.90;95938.25;4989627;28;20555;-81
2022/06/18 11:07:22;;;;;;;3.95;2.70;;;;;;;32.42;28.12;95943.59;4990329;28;20178;-82
2022/06/18 11:09:47;;;;;;;4.13;2.60;;;;;;;32.10;28.42;95943.84;4989585;28;20038;-82
2022/06/18 11:12:39;;;;;;;5.60;2.80;;;;;;;32.55;26.76;95946.59;4988922;28;20188;-82
2022/06/18 11:15:36;;;;;;;5.15;2.65;;;;;;;33.04;26.34;95934.88;4986668;28;20062;-82
2022/06/18 11:18:14;;;;;;;4.88;2.67;;;;;;;33.54;25.52;95937.03;4990280;28;20077;-82
2022/06/18 11:20:52;;;;;;;6.30;2.78;;;;;;;33.23;24.74;95942.50;4988648;28;20459;-82
2022/06/18 11:23:20;;;;;;;4.80;2.83;;;;;;;33.38;25.64;95939.59;4991382;28;20496;-82
2022/06/18 11:25:50;;;;;;;4.88;2.40;;;;;;;32.80;23.19;95934.72;4990872;28;20038;-82
2022/06/18 11:28:32;;;;;;;5.20;2.83;;;;;;;33.11;24.99;95932.84;4989638;28;20030;-82
2022/06/18 11:30:58;;;;;;;3.92;2.70;;;;;;;33.13;24.08;95925.03;4989222;28;20430;-82
2022/06/18 11:33:34;;;;;;;7.75;2.67;;;;;;;32.71;23.24;95927.03;5005669;28;20041;-81
2022/06/18 11:36:07;;;;;;;6.05;2.80;;;;;;;32.59;25.12;95922.84;4990038;28;20041;-82
2022/06/18 11:38:34;;;;;;;9.93;3.03;;;;;;;32.78;26.17;95920.75;4989591;28;20042;-82
2022/06/18 11:41:26;;;;;;;4.95;2.50;;;;;;;33.78;25.04;95912.56;4990110;28;20677;-82
2022/06/18 11:44:16;;;;;;;5.38;2.80;;;;;;;33.74;24.37;95909.09;4988732;28;20069;-82
2022/06/18 11:46:55;;;;;;;4.28;2.78;;;;;;;33.86;24.53;95908.53;4990298;28;20093;-82
2022/06/18 11:49:35;;;;;;;5.43;2.75;;;;;;;34.33;23.38;95911.34;4989622;28;20053;-82
2022/06/18 11:52:10;;;;;;;9.25;2.78;;;;;;;34.57;22.14;95911.34;4988202;28;20113;-82
2022/06/18 11:54:43;;;;;;;5.78;2.85;;;;;;;34.24;23.91;95902.88;4989845;28;20050;-82
2022/06/18 11:57:20;;;;;;;9.40;3.08;;;;;;;33.03;25.16;95903.34;4990024;28;20072;-82
2022/06/18 12:00:16;;;;;;;7.35;2.72;;;;;;;34.10;25.50;95894.94;4989624;28;20416;-82